Time;durP1;ratioP1;P1;durP2;ratioP2;P2;SDS_P1;SDS_P2;PMS_P1;PMS_P2;Temp;Humidity;BMP_temperature;BMP_pressure;BME280_temperature;BME280_humidity;BME280_pressure;Samples;Min_cycle;Max_cycle;Signal;HPM_P1;HPM_P2
2023/10/28 00:00:07;;;;;;;;;;;;;;;;;;6286770;28;19913;-80
2023/10/28 00:03:07;;;;;;;;;;;;;;;;;;6299966;28;19924;-82
2023/10/28 00:06:07;;;;;;;;;;;;;;;;;;6289999;28;20346;-80
2023/10/28 00:09:07;;;;;;;;;;;;;;;;;;6296010;28;19912;-85
2023/10/28 00:12:12;;;;;;;;;;;;;;;;;;6279985;28;19977;-80
2023/10/28 00:15:13;;;;;;;;;;;;;;;;;;6295212;28;19955;-80
2023/10/28 00:18:14;;;;;;;;;;;;;;;;;;6289736;28;19919;-80
2023/10/28 00:21:17;;;;;;;;;;;;;;;;;;6285261;28;20254;-80
2023/10/28 00:24:17;;;;;;;;;;;;;;;;;;6299215;28;19970;-80
2023/10/28 00:27:18;;;;;;;;;;;;;;;;;;5940984;28;9999908;-80
2023/10/28 00:30:18;;;;;;;;;;;;;;;;;;6284241;28;19916;-80
2023/10/28 00:33:18;;;;;;;;;;;;;;;;;;6286267;28;19950;-80
2023/10/28 00:36:18;;;;;;;;;;;;;;;;;;6294812;28;20030;-83
2023/10/28 00:39:18;;;;;;;;;;;;;;;;;;6287082;28;20265;-80
2023/10/28 00:42:18;;;;;;;;;;;;;;;;;;6287677;28;20239;-80
2023/10/28 00:45:19;;;;;;;;;;;;;;;;;;6283699;28;19913;-80
2023/10/28 00:48:19;;;;;;;;;;;;;;;;;;6290921;28;19950;-80
2023/10/28 00:51:19;;;;;;;;;;;;;;;;;;6283654;28;19913;-80
2023/10/28 00:54:19;;;;;;;;;;;;;;;;;;6275898;28;19994;-80
2023/10/28 00:57:19;;;;;;;;;;;;;;;;;;6286803;28;19913;-81
2023/10/28 01:00:20;;;;;;;;;;;;;;;;;;6287594;28;20285;-80
2023/10/28 01:03:20;;;;;;;;;;;;;;;;;;6281943;28;20488;-84
2023/10/28 01:06:20;;;;;;;;;;;;;;;;;;6282811;28;21271;-81
2023/10/28 01:09:21;;;;;;;;;;;;;;;;;;6286715;28;20413;-83
2023/10/28 01:12:23;;;;;;;;;;;;;;;;;;6283563;28;20008;-80
2023/10/28 01:15:23;;;;;;;;;;;;;;;;;;6298951;28;19917;-81
2023/10/28 01:18:23;;;;;;;;;;;;;;;;;;6286514;28;19919;-83
2023/10/28 01:21:24;;;;;;;;;;;;;;;;;;6285207;28;19966;-80
2023/10/28 01:24:24;;;;;;;;;;;;;;;;;;6282305;28;19959;-81
2023/10/28 01:27:24;;;;;;;;;;;;;;;;;;6282640;28;19913;-80
2023/10/28 01:30:24;;;;;;;;;;;;;;;;;;6283808;28;19955;-81
2023/10/28 01:33:24;;;;;;;;;;;;;;;;;;6291111;28;20007;-81
2023/10/28 01:36:24;;;;;;;;;;;;;;;;;;6302690;28;19943;-82
2023/10/28 01:39:24;;;;;;;;;;;;;;;;;;6285698;28;20292;-80
2023/10/28 01:42:24;;;;;;;;;;;;;;;;;;6286750;28;19931;-80
2023/10/28 01:45:24;;;;;;;;;;;;;;;;;;6286052;28;19916;-80
2023/10/28 01:48:25;;;;;;;;;;;;;;;;;;6305254;28;20297;-82
2023/10/28 01:51:25;;;;;;;;;;;;;;;;;;6284203;28;20388;-80
2023/10/28 01:54:25;;;;;;;;;;;;;;;;;;6287233;28;20330;-81
2023/10/28 01:57:25;;;;;;;;;;;;;;;;;;6285666;28;19916;-80
2023/10/28 02:00:30;;;;;;;;;;;;;;;;;;6299314;28;19913;-80
2023/10/28 02:03:30;;;;;;;;;;;;;;;;;;6286606;28;19916;-80
2023/10/28 02:06:30;;;;;;;;;;;;;;;;;;6282376;28;19923;-83
2023/10/28 02:09:33;;;;;;;;;;;;;;;;;;6282462;28;19913;-80
2023/10/28 02:12:37;;;;;;;;;;;;;;;;;;6305256;28;19951;-80
2023/10/28 02:15:37;;;;;;;;;;;;;;;;;;6283874;28;20008;-79
2023/10/28 02:18:37;;;;;;;;;;;;;;;;;;6282798;28;19912;-80
2023/10/28 02:21:37;;;;;;;;;;;;;;;;;;6284393;28;19920;-80
2023/10/28 02:24:37;;;;;;;;;;;;;;;;;;6287890;28;19916;-80
2023/10/28 02:27:38;;;;;;;;;;;;;;;;;;6290253;28;19913;-81
2023/10/28 02:30:38;;;;;;;;;;;;;;;;;;6285652;28;20320;-80
2023/10/28 02:33:39;;;;;;;;;;;;;;;;;;6281812;28;19913;-80
2023/10/28 02:36:39;;;;;;;;;;;;;;;;;;6290199;28;19940;-81
2023/10/28 02:39:39;;;;;;;;;;;;;;;;;;6289485;28;19919;-81
2023/10/28 02:42:39;;;;;;;;;;;;;;;;;;6299782;28;20050;-80
2023/10/28 02:45:39;;;;;;;;;;;;;;;;;;6291389;28;19917;-80
2023/10/28 02:48:40;;;;;;;;;;;;;;;;;;6295571;28;19919;-80
2023/10/28 02:51:40;;;;;;;;;;;;;;;;;;6292122;28;19963;-81
2023/10/28 02:54:40;;;;;;;;;;;;;;;;;;6302102;28;20003;-80
2023/10/28 02:57:40;;;;;;;;;;;;;;;;;;6297342;28;19913;-81
2023/10/28 03:00:40;;;;;;;;;;;;;;;;;;6287315;28;19913;-81
2023/10/28 03:03:41;;;;;;;;;;;;;;;;;;6280922;28;19917;-80
2023/10/28 03:06:41;;;;;;;;;;;;;;;;;;6294149;28;19931;-81
2023/10/28 03:09:41;;;;;;;;;;;;;;;;;;6300101;28;19913;-80
2023/10/28 03:12:41;;;;;;;;;;;;;;;;;;6300727;28;19912;-80
2023/10/28 03:15:45;;;;;;;;;;;;;;;;;;6292398;28;19917;-80
2023/10/28 03:18:45;;;;;;;;;;;;;;;;;;6290102;28;19912;-81
2023/10/28 03:21:46;;;;;;;;;;;;;;;;;;6299521;28;19925;-81
2023/10/28 03:24:46;;;;;;;;;;;;;;;;;;6290937;28;19923;-83
2023/10/28 03:27:46;;;;;;;;;;;;;;;;;;6289068;28;19917;-83
2023/10/28 03:30:46;;;;;;;;;;;;;;;;;;6286607;28;20436;-83
2023/10/28 03:33:46;;;;;;;;;;;;;;;;;;6304952;28;20333;-80
2023/10/28 03:36:46;;;;;;;;;;;;;;;;;;6283117;28;19920;-80
2023/10/28 03:39:46;;;;;;;;;;;;;;;;;;6301540;28;20021;-79
2023/10/28 03:42:47;;;;;;;;;;;;;;;;;;6282148;28;19925;-79
2023/10/28 03:45:48;;;;;;;;;;;;;;;;;;6301778;28;19917;-79
2023/10/28 03:48:48;;;;;;;;;;;;;;;;;;6291840;28;19909;-80
2023/10/28 03:51:48;;;;;;;;;;;;;;;;;;6293331;28;19916;-80
2023/10/28 03:54:48;;;;;;;;;;;;;;;;;;6288711;28;19913;-79
2023/10/28 03:57:48;;;;;;;;;;;;;;;;;;6298950;28;19908;-80
2023/10/28 04:00:48;;;;;;;;;;;;;;;;;;6277083;28;20389;-79
2023/10/28 04:03:49;;;;;;;;;;;;;;;;;;6290814;28;19921;-80
2023/10/28 04:06:49;;;;;;;;;;;;;;;;;;6315696;28;19926;-80
2023/10/28 04:09:49;;;;;;;;;;;;;;;;;;6307609;28;20006;-79
2023/10/28 04:12:50;;;;;;;;;;;;;;;;;;6301182;28;19919;-80
2023/10/28 04:15:50;;;;;;;;;;;;;;;;;;6301143;28;19920;-79
2023/10/28 04:18:51;;;;;;;;;;;;;;;;;;6311390;28;19912;-80
2023/10/28 04:21:51;;;;;;;;;;;;;;;;;;6300790;28;19920;-79
2023/10/28 04:24:51;;;;;;;;;;;;;;;;;;6300874;28;19908;-80
2023/10/28 04:27:51;;;;;;;;;;;;;;;;;;6300219;28;19948;-79
2023/10/28 04:30:51;;;;;;;;;;;;;;;;;;6291281;28;20403;-83
2023/10/28 04:33:52;;;;;;;;;;;;;;;;;;6285824;28;20452;-80
2023/10/28 04:36:53;;;;;;;;;;;;;;;;;;6298414;28;19916;-80
2023/10/28 04:39:53;;;;;;;;;;;;;;;;;;6290495;28;19919;-80
2023/10/28 04:42:53;;;;;;;;;;;;;;;;;;6310795;28;20392;-80
2023/10/28 04:45:53;;;;;;;;;;;;;;;;;;6290049;28;19920;-80
2023/10/28 04:48:53;;;;;;;;;;;;;;;;;;6285564;28;19913;-80
2023/10/28 04:51:54;;;;;;;;;;;;;;;;;;6286923;28;20008;-79
2023/10/28 04:54:54;;;;;;;;;;;;;;;;;;6313507;28;19919;-83
2023/10/28 04:57:54;;;;;;;;;;;;;;;;;;6308040;28;20348;-80
2023/10/28 05:00:54;;;;;;;;;;;;;;;;;;6281555;28;19919;-80
2023/10/28 05:03:54;;;;;;;;;;;;;;;;;;6286015;28;19942;-80
2023/10/28 05:06:54;;;;;;;;;;;;;;;;;;6293185;28;19916;-80
2023/10/28 05:09:55;;;;;;;;;;;;;;;;;;6295771;28;20031;-80
2023/10/28 05:12:55;;;;;;;;;;;;;;;;;;6306062;28;19912;-79
2023/10/28 05:15:55;;;;;;;;;;;;;;;;;;6283781;28;19923;-80
2023/10/28 05:18:56;;;;;;;;;;;;;;;;;;6291483;28;19923;-79
2023/10/28 05:21:56;;;;;;;;;;;;;;;;;;6285350;28;19925;-80
2023/10/28 05:24:56;;;;;;;;;;;;;;;;;;6298010;28;20384;-80
2023/10/28 05:27:56;;;;;;;;;;;;;;;;;;6292091;28;19939;-83
2023/10/28 05:30:57;;;;;;;;;;;;;;;;;;6278936;28;19956;-80
2023/10/28 05:33:57;;;;;;;;;;;;;;;;;;6288207;28;19944;-80
2023/10/28 05:36:57;;;;;;;;;;;;;;;;;;6287952;28;19939;-81
2023/10/28 05:39:58;;;;;;;;;;;;;;;;;;6285376;28;20369;-80
2023/10/28 05:42:59;;;;;;;;;;;;;;;;;;6282171;28;19928;-83
2023/10/28 05:45:59;;;;;;;;;;;;;;;;;;6283525;28;19913;-79
2023/10/28 05:49:00;;;;;;;;;;;;;;;;;;6282916;28;19928;-80
2023/10/28 05:52:00;;;;;;;;;;;;;;;;;;5935139;28;9999976;-80
2023/10/28 05:55:01;;;;;;;;;;;;;;;;;;6286739;28;19984;-79
2023/10/28 05:58:01;;;;;;;;;;;;;;;;;;6301271;28;19912;-82
2023/10/28 06:01:02;;;;;;;;;;;;;;;;;;6280971;28;20285;-81
2023/10/28 06:04:02;;;;;;;;;;;;;;;;;;6288948;28;19925;-83
2023/10/28 06:07:02;;;;;;;;;;;;;;;;;;6278216;28;19942;-83
2023/10/28 06:10:04;;;;;;;;;;;;;;;;;;6279009;28;19925;-81
2023/10/28 06:13:04;;;;;;;;;;;;;;;;;;6273821;28;19912;-82
2023/10/28 06:16:05;;;;;;;;;;;;;;;;;;6280446;28;19948;-82
2023/10/28 06:19:05;;;;;;;;;;;;;;;;;;6285671;28;20320;-81
2023/10/28 06:22:05;;;;;;;;;;;;;;;;;;6282043;28;20409;-82
2023/10/28 06:25:07;;;;;;;;;;;;;;;;;;6281971;28;20705;-83
2023/10/28 06:28:08;;;;;;;;;;;;;;;;;;6282925;28;20300;-81
2023/10/28 06:31:08;;;;;;;;;;;;;;;;;;6295495;28;19956;-89
2023/10/28 06:34:08;;;;;;;;;;;;;;;;;;6295978;28;19908;-82
2023/10/28 06:37:08;;;;;;;;;;;;;;;;;;6292022;28;19920;-81
2023/10/28 06:40:11;;;;;;;;;;;;;;;;;;6284116;28;19920;-81
2023/10/28 06:43:11;;;;;;;;;;;;;;;;;;6288959;28;19916;-82
2023/10/28 06:46:12;;;;;;;;;;;;;;;;;;6296316;28;19987;-81
2023/10/28 06:49:12;;;;;;;;;;;;;;;;;;6290441;28;19940;-81
2023/10/28 06:52:13;;;;;;;;;;;;;;;;;;6289733;28;19913;-81
2023/10/28 06:55:13;;;;;;;;;;;;;;;;;;6300538;28;20007;-83
2023/10/28 06:58:15;;;;;;;;;;;;;;;;;;6284369;28;19913;-84
2023/10/28 07:01:15;;;;;;;;;;;;;;;;;;6282749;28;19916;-82
2023/10/28 07:04:15;;;;;;;;;;;;;;;;;;6277061;28;20011;-83
2023/10/28 07:07:15;;;;;;;;;;;;;;;;;;5602697;28;10000705;-79
2023/10/28 07:10:16;;;;;;;;;;;;;;;;;;6274058;28;19913;-80
2023/10/28 07:13:16;;;;;;;;;;;;;;;;;;6293782;28;20431;-79
2023/10/28 07:16:19;;;;;;;;;;;;;;;;;;6280389;28;19977;-79
2023/10/28 07:19:19;;;;;;;;;;;;;;;;;;6297661;28;19916;-79
2023/10/28 07:22:25;;;;;;;;;;;;;;;;;;6280808;28;20023;-79
2023/10/28 07:25:27;;;;;;;;;;;;;;;;;;6279393;28;19928;-79
2023/10/28 07:28:33;;;;;;;;;;;;;;;;;;6278129;28;19969;-83
2023/10/28 07:31:33;;;;;;;;;;;;;;;;;;6282536;28;19913;-79
2023/10/28 07:34:33;;;;;;;;;;;;;;;;;;6282574;28;19913;-80
2023/10/28 07:37:34;;;;;;;;;;;;;;;;;;6278366;28;19962;-79
2023/10/28 07:40:34;;;;;;;;;;;;;;;;;;6281987;28;19919;-79
2023/10/28 07:43:35;;;;;;;;;;;;;;;;;;6300798;28;19921;-81
2023/10/28 07:46:35;;;;;;;;;;;;;;;;;;6277350;28;19947;-79
2023/10/28 07:49:35;;;;;;;;;;;;;;;;;;6291126;28;19959;-79
2023/10/28 07:52:35;;;;;;;;;;;;;;;;;;6280696;28;19917;-79
2023/10/28 07:55:38;;;;;;;;;;;;;;;;;;6293523;28;19917;-80
2023/10/28 07:58:38;;;;;;;;;;;;;;;;;;6283629;28;20350;-80
2023/10/28 08:01:39;;;;;;;;;;;;;;;;;;6280277;28;19921;-79
2023/10/28 08:04:40;;;;;;;;;;;;;;;;;;6295881;28;19913;-78
2023/10/28 08:07:40;;;;;;;;;;;;;;;;;;6281286;28;20284;-80
2023/10/28 08:10:40;;;;;;;;;;;;;;;;;;6276085;28;20378;-78
2023/10/28 08:13:41;;;;;;;;;;;;;;;;;;6291239;28;19919;-81
2023/10/28 08:16:41;;;;;;;;;;;;;;;;;;6284471;28;20417;-79
2023/10/28 08:19:41;;;;;;;;;;;;;;;;;;6297150;28;19925;-79
2023/10/28 08:22:41;;;;;;;;;;;;;;;;;;6277605;28;19920;-78
2023/10/28 08:25:41;;;;;;;;;;;;;;;;;;6277292;28;20351;-79
2023/10/28 08:28:41;;;;;;;;;;;;;;;;;;6275424;28;19952;-79
2023/10/28 08:31:41;;;;;;;;;;;;;;;;;;6281701;28;20326;-80
2023/10/28 08:34:43;;;;;;;;;;;;;;;;;;6273870;28;19977;-80
2023/10/28 08:37:43;;;;;;;;;;;;;;;;;;6277592;28;19943;-78
2023/10/28 08:40:43;;;;;;;;;;;;;;;;;;6284734;28;19916;-77
2023/10/28 08:43:45;;;;;;;;;;;;;;;;;;6273343;28;20282;-79
2023/10/28 08:46:45;;;;;;;;;;;;;;;;;;6276954;28;19913;-77
2023/10/28 08:49:45;;;;;;;;;;;;;;;;;;6273660;28;20500;-77
2023/10/28 08:52:45;;;;;;;;;;;;;;;;;;6293323;28;19912;-79
2023/10/28 08:55:45;;;;;;;;;;;;;;;;;;6293536;28;19947;-78
2023/10/28 08:58:49;;;;;;;;;;;;;;;;;;6287545;28;20280;-78
2023/10/28 09:01:50;;;;;;;;;;;;;;;;;;6294631;28;20047;-78
2023/10/28 09:04:50;;;;;;;;;;;;;;;;;;6279686;28;19913;-77
2023/10/28 09:07:51;;;;;;;;;;;;;;;;;;5935578;28;9999763;-78
2023/10/28 09:10:51;;;;;;;;;;;;;;;;;;6279389;28;19919;-78
2023/10/28 09:13:51;;;;;;;;;;;;;;;;;;6276495;28;20398;-78
2023/10/28 09:16:51;;;;;;;;;;;;;;;;;;6271442;28;19913;-77
2023/10/28 09:19:51;;;;;;;;;;;;;;;;;;6273850;28;19928;-78
2023/10/28 09:22:52;;;;;;;;;;;;;;;;;;6282857;28;19952;-78
2023/10/28 09:25:52;;;;;;;;;;;;;;;;;;6271933;28;20353;-77
2023/10/28 09:28:52;;;;;;;;;;;;;;;;;;6290465;28;20405;-78
2023/10/28 09:31:52;;;;;;;;;;;;;;;;;;6290782;28;20025;-77
2023/10/28 09:34:52;;;;;;;;;;;;;;;;;;6282453;28;20007;-77
2023/10/28 09:37:53;;;;;;;;;;;;;;;;;;6279521;28;19920;-78
2023/10/28 09:40:53;;;;;;;;;;;;;;;;;;6293019;28;20918;-77
2023/10/28 09:43:54;;;;;;;;;;;;;;;;;;6312851;28;19929;-77
2023/10/28 09:46:54;;;;;;;;;;;;;;;;;;6285938;28;20289;-77
2023/10/28 09:49:54;;;;;;;;;;;;;;;;;;6281655;28;19936;-77
2023/10/28 09:52:54;;;;;;;;;;;;;;;;;;6294706;28;19974;-78
2023/10/28 09:55:54;;;;;;;;;;;;;;;;;;6290597;28;19913;-77
2023/10/28 09:58:54;;;;;;;;;;;;;;;;;;6283427;28;19916;-79
2023/10/28 10:01:55;;;;;;;;;;;;;;;;;;6290125;28;19920;-77
2023/10/28 10:04:55;;;;;;;;;;;;;;;;;;6291408;28;19917;-77
2023/10/28 10:07:55;;;;;;;;;;;;;;;;;;6287247;28;19912;-78
2023/10/28 10:10:55;;;;;;;;;;;;;;;;;;6289836;28;19967;-77
2023/10/28 10:13:55;;;;;;;;;;;;;;;;;;6276280;28;19924;-78
2023/10/28 10:16:56;;;;;;;;;;;;;;;;;;6273315;28;20361;-77
2023/10/28 10:19:56;;;;;;;;;;;;;;;;;;6271542;28;19917;-78
2023/10/28 10:22:58;;;;;;;;;;;;;;;;;;6289307;28;19921;-78
2023/10/28 10:25:58;;;;;;;;;;;;;;;;;;6278345;28;19923;-78
2023/10/28 10:28:58;;;;;;;;;;;;;;;;;;6278839;28;20008;-79
2023/10/28 10:31:59;;;;;;;;;;;;;;;;;;6275532;28;19920;-82
2023/10/28 10:34:59;;;;;;;;;;;;;;;;;;6287072;28;19908;-82
2023/10/28 10:37:59;;;;;;;;;;;;;;;;;;6296290;28;19928;-80
2023/10/28 10:40:59;;;;;;;;;;;;;;;;;;6274380;28;19959;-79
2023/10/28 10:43:59;;;;;;;;;;;;;;;;;;6276841;28;19928;-80
2023/10/28 10:46:59;;;;;;;;;;;;;;;;;;6273178;28;19920;-80
2023/10/28 10:50:00;;;;;;;;;;;;;;;;;;6291498;28;19913;-78
2023/10/28 10:53:00;;;;;;;;;;;;;;;;;;6276553;28;19913;-80
2023/10/28 10:56:00;;;;;;;;;;;;;;;;;;6280140;28;19955;-80
2023/10/28 10:59:00;;;;;;;;;;;;;;;;;;6280400;28;20022;-80
2023/10/28 11:02:00;;;;;;;;;;;;;;;;;;6279104;28;19913;-80
2023/10/28 11:05:00;;;;;;;;;;;;;;;;;;6302433;28;19908;-80
2023/10/28 11:08:01;;;;;;;;;;;;;;;;;;6297038;28;19908;-80
2023/10/28 11:11:03;;;;;;;;;;;;;;;;;;6301690;28;19913;-80
2023/10/28 11:14:04;;;;;;;;;;;;;;;;;;6307863;28;19932;-81
2023/10/28 11:17:04;;;;;;;;;;;;;;;;;;6277127;28;19913;-80
2023/10/28 11:20:05;;;;;;;;;;;;;;;;;;6281333;28;19960;-80
2023/10/28 11:23:05;;;;;;;;;;;;;;;;;;6316444;28;19924;-80
2023/10/28 11:26:06;;;;;;;;;;;;;;;;;;6301506;28;19951;-80
2023/10/28 11:29:06;;;;;;;;;;;;;;;;;;6316966;28;19953;-80
2023/10/28 11:32:07;;;;;;;;;;;;;;;;;;6314551;28;19944;-80
2023/10/28 11:35:07;;;;;;;;;;;;;;;;;;6300106;28;19912;-80
2023/10/28 11:38:10;;;;;;;;;;;;;;;;;;6300752;28;19915;-80
2023/10/28 11:41:11;;;;;;;;;;;;;;;;;;6322178;28;19919;-80
2023/10/28 11:44:11;;;;;;;;;;;;;;;;;;6309783;28;19917;-80
2023/10/28 11:47:11;;;;;;;;;;;;;;;;;;6295935;28;19959;-82
2023/10/28 11:50:11;;;;;;;;;;;;;;;;;;6273799;28;20384;-82
2023/10/28 11:53:14;;;;;;;;;;;;;;;;;;6286377;28;19909;-82
2023/10/28 11:56:21;;;;;;;;;;;;;;;;;;6303219;28;20044;-82
2023/10/28 11:59:21;;;;;;;;;;;;;;;;;;6300414;28;19963;-82
2023/10/28 12:02:22;;;;;;;;;;;;;;;;;;6307087;28;19993;-82
2023/10/28 12:05:22;;;;;;;;;;;;;;;;;;6276883;28;19912;-82
2023/10/28 12:08:22;;;;;;;;;;;;;;;;;;6281585;28;19912;-83
2023/10/28 12:11:22;;;;;;;;;;;;;;;;;;6300077;28;19959;-82
2023/10/28 12:14:23;;;;;;;;;;;;;;;;;;6300458;28;19919;-82
2023/10/28 12:17:23;;;;;;;;;;;;;;;;;;6282311;28;19916;-83
2023/10/28 12:20:23;;;;;;;;;;;;;;;;;;6298678;28;19923;-83
2023/10/28 12:23:23;;;;;;;;;;;;;;;;;;6291344;28;20019;-82
2023/10/28 12:26:23;;;;;;;;;;;;;;;;;;6299866;28;20278;-83
2023/10/28 12:29:23;;;;;;;;;;;;;;;;;;6298135;28;20373;-83
2023/10/28 12:32:24;;;;;;;;;;;;;;;;;;6300125;28;19947;-83
2023/10/28 12:35:24;;;;;;;;;;;;;;;;;;6302748;28;19947;-82
2023/10/28 12:38:26;;;;;;;;;;;;;;;;;;6320612;28;19931;-82
2023/10/28 12:41:26;;;;;;;;;;;;;;;;;;6300047;28;19916;-83
2023/10/28 12:44:26;;;;;;;;;;;;;;;;;;6297010;28;19916;-83
2023/10/28 12:47:26;;;;;;;;;;;;;;;;;;6299798;28;19915;-82
2023/10/28 12:50:26;;;;;;;;;;;;;;;;;;6297920;28;19908;-82
2023/10/28 12:53:26;;;;;;;;;;;;;;;;;;6298911;28;19909;-83
2023/10/28 12:56:27;;;;;;;;;;;;;;;;;;6288401;28;19920;-83
2023/10/28 12:59:30;;;;;;;;;;;;;;;;;;6286087;28;19908;-83
2023/10/28 13:02:32;;;;;;;;;;;;;;;;;;6296234;28;19928;-82
2023/10/28 13:05:32;;;;;;;;;;;;;;;;;;6295256;28;19966;-82
2023/10/28 13:08:32;;;;;;;;;;;;;;;;;;6296520;28;19912;-82
2023/10/28 13:11:33;;;;;;;;;;;;;;;;;;6298424;28;19908;-82
2023/10/28 13:14:33;;;;;;;;;;;;;;;;;;6297472;28;19931;-82
2023/10/28 13:17:33;;;;;;;;;;;;;;;;;;6305873;28;20285;-82
2023/10/28 13:20:33;;;;;;;;;;;;;;;;;;6272590;28;19916;-82
2023/10/28 13:23:33;;;;;;;;;;;;;;;;;;6271789;28;19920;-82
2023/10/28 13:26:33;;;;;;;;;;;;;;;;;;6280075;28;19912;-82
2023/10/28 13:29:33;;;;;;;;;;;;;;;;;;6297617;28;19912;-82
2023/10/28 13:32:34;;;;;;;;;;;;;;;;;;6310490;28;19989;-83
2023/10/28 13:35:35;;;;;;;;;;;;;;;;;;6302344;28;19923;-83
2023/10/28 13:38:35;;;;;;;;;;;;;;;;;;6297808;28;20460;-83
2023/10/28 13:41:35;;;;;;;;;;;;;;;;;;6298374;28;19916;-83
2023/10/28 13:44:35;;;;;;;;;;;;;;;;;;6297667;28;20006;-82
2023/10/28 13:47:35;;;;;;;;;;;;;;;;;;6296827;28;19970;-82
2023/10/28 13:50:38;;;;;;;;;;;;;;;;;;6295122;28;19976;-82
2023/10/28 13:53:38;;;;;;;;;;;;;;;;;;6297535;28;19912;-82
2023/10/28 13:56:39;;;;;;;;;;;;;;;;;;6330575;28;19912;-82
2023/10/28 13:59:39;;;;;;;;;;;;;;;;;;6282673;28;19916;-82
2023/10/28 14:02:40;;;;;;;;;;;;;;;;;;6297699;28;19923;-83
2023/10/28 14:05:41;;;;;;;;;;;;;;;;;;6295463;28;19920;-82
2023/10/28 14:08:41;;;;;;;;;;;;;;;;;;6297292;28;19912;-82
2023/10/28 14:11:41;;;;;;;;;;;;;;;;;;6296556;28;19913;-82
2023/10/28 14:14:41;;;;;;;;;;;;;;;;;;6297444;28;19912;-82
2023/10/28 14:17:42;;;;;;;;;;;;;;;;;;6290149;28;20435;-80
2023/10/28 14:20:42;;;;;;;;;;;;;;;;;;6296009;28;19966;-80
2023/10/28 14:23:42;;;;;;;;;;;;;;;;;;6277935;28;20477;-80
2023/10/28 14:26:42;;;;;;;;;;;;;;;;;;6283031;28;19912;-80
2023/10/28 14:29:42;;;;;;;;;;;;;;;;;;6301407;28;19913;-80
2023/10/28 14:32:44;;;;;;;;;;;;;;;;;;6293678;28;20290;-79
2023/10/28 14:35:45;;;;;;;;;;;;;;;;;;6276788;28;19916;-78
2023/10/28 14:38:45;;;;;;;;;;;;;;;;;;6277493;28;20318;-80
2023/10/28 14:41:45;;;;;;;;;;;;;;;;;;6281101;28;19925;-77
2023/10/28 14:44:45;;;;;;;;;;;;;;;;;;6273091;28;19931;-77
2023/10/28 14:47:47;;;;;;;;;;;;;;;;;;6273570;28;19912;-77
2023/10/28 14:50:47;;;;;;;;;;;;;;;;;;6271304;28;20671;-79
2023/10/28 14:53:47;;;;;;;;;;;;;;;;;;6270404;28;19967;-79
2023/10/28 14:56:47;;;;;;;;;;;;;;;;;;6272675;28;19920;-78
2023/10/28 14:59:48;;;;;;;;;;;;;;;;;;6271658;28;19916;-78
2023/10/28 15:02:48;;;;;;;;;;;;;;;;;;6280193;28;19950;-77
2023/10/28 15:05:48;;;;;;;;;;;;;;;;;;6272487;28;20019;-80
2023/10/28 15:08:49;;;;;;;;;;;;;;;;;;6305943;28;19913;-77
2023/10/28 15:11:49;;;;;;;;;;;;;;;;;;6281602;28;20046;-78
2023/10/28 15:14:49;;;;;;;;;;;;;;;;;;6302159;28;19916;-78
2023/10/28 15:17:51;;;;;;;;;;;;;;;;;;6281449;28;20435;-79
2023/10/28 15:20:52;;;;;;;;;;;;;;;;;;6284717;28;20036;-78
2023/10/28 15:23:52;;;;;;;;;;;;;;;;;;6273197;28;20035;-78
2023/10/28 15:26:52;;;;;;;;;;;;;;;;;;6275292;28;19962;-78
2023/10/28 15:29:52;;;;;;;;;;;;;;;;;;6292756;28;20396;-78
2023/10/28 15:32:53;;;;;;;;;;;;;;;;;;6285556;28;19952;-78
2023/10/28 15:35:53;;;;;;;;;;;;;;;;;;6281216;28;20345;-80
2023/10/28 15:38:53;;;;;;;;;;;;;;;;;;6288982;28;19917;-80
2023/10/28 15:41:53;;;;;;;;;;;;;;;;;;6275003;28;19920;-80
2023/10/28 15:44:53;;;;;;;;;;;;;;;;;;6285148;28;20444;-80
2023/10/28 15:47:53;;;;;;;;;;;;;;;;;;6292741;28;19923;-81
2023/10/28 15:50:53;;;;;;;;;;;;;;;;;;6298055;28;19908;-80
2023/10/28 15:53:54;;;;;;;;;;;;;;;;;;6273759;28;19917;-81
2023/10/28 15:56:54;;;;;;;;;;;;;;;;;;6279440;28;19913;-80
2023/10/28 15:59:54;;;;;;;;;;;;;;;;;;6280596;28;19959;-80
2023/10/28 16:02:55;;;;;;;;;;;;;;;;;;6281307;28;19997;-80
2023/10/28 16:05:55;;;;;;;;;;;;;;;;;;6275706;28;19927;-80
2023/10/28 16:08:55;;;;;;;;;;;;;;;;;;6275865;28;19950;-80
2023/10/28 16:11:55;;;;;;;;;;;;;;;;;;6274454;28;19958;-82
2023/10/28 16:14:55;;;;;;;;;;;;;;;;;;6283274;28;19913;-82
2023/10/28 16:17:55;;;;;;;;;;;;;;;;;;6272415;28;19917;-81
2023/10/28 16:20:58;;;;;;;;;;;;;;;;;;6273794;28;20320;-80
2023/10/28 16:23:58;;;;;;;;;;;;;;;;;;6275473;28;19928;-79
2023/10/28 16:26:58;;;;;;;;;;;;;;;;;;6280946;28;19917;-80
2023/10/28 16:29:58;;;;;;;;;;;;;;;;;;6276728;28;19912;-80
2023/10/28 16:32:58;;;;;;;;;;;;;;;;;;6279075;28;19948;-81
2023/10/28 16:35:59;;;;;;;;;;;;;;;;;;6278660;28;19917;-80
2023/10/28 16:38:59;;;;;;;;;;;;;;;;;;6275742;28;19920;-78
2023/10/28 16:41:59;;;;;;;;;;;;;;;;;;6276408;28;19917;-77
2023/10/28 16:45:00;;;;;;;;;;;;;;;;;;6279348;28;19920;-77
2023/10/28 16:48:00;;;;;;;;;;;;;;;;;;6278576;28;19912;-79
2023/10/28 16:51:00;;;;;;;;;;;;;;;;;;6280713;28;19912;-77
2023/10/28 16:54:00;;;;;;;;;;;;;;;;;;6277278;28;19913;-77
2023/10/28 16:57:01;;;;;;;;;;;;;;;;;;6274474;28;19909;-77
2023/10/28 17:00:01;;;;;;;;;;;;;;;;;;6278629;28;19913;-77
2023/10/28 17:03:01;;;;;;;;;;;;;;;;;;6277947;28;19923;-79
2023/10/28 17:06:01;;;;;;;;;;;;;;;;;;6270523;28;19927;-78
2023/10/28 17:09:03;;;;;;;;;;;;;;;;;;6282899;28;19913;-77
2023/10/28 17:12:03;;;;;;;;;;;;;;;;;;6274095;28;19969;-78
2023/10/28 17:15:04;;;;;;;;;;;;;;;;;;6271386;28;20285;-78
2023/10/28 17:18:04;;;;;;;;;;;;;;;;;;6273475;28;19943;-78
2023/10/28 17:21:04;;;;;;;;;;;;;;;;;;6274604;28;20012;-78
2023/10/28 17:24:04;;;;;;;;;;;;;;;;;;6281344;28;20023;-77
2023/10/28 17:27:05;;;;;;;;;;;;;;;;;;6276539;28;19913;-78
2023/10/28 17:30:05;;;;;;;;;;;;;;;;;;6274983;28;20422;-77
2023/10/28 17:33:05;;;;;;;;;;;;;;;;;;6275672;28;19921;-78
2023/10/28 17:36:05;;;;;;;;;;;;;;;;;;6277169;28;19924;-78
2023/10/28 17:39:09;;;;;;;;;;;;;;;;;;6278852;28;19992;-78
2023/10/28 17:42:09;;;;;;;;;;;;;;;;;;6277086;28;19921;-77
2023/10/28 17:45:09;;;;;;;;;;;;;;;;;;6270179;28;20475;-78
2023/10/28 17:48:11;;;;;;;;;;;;;;;;;;6281814;28;19940;-79
2023/10/28 17:51:12;;;;;;;;;;;;;;;;;;6277619;28;19924;-79
2023/10/28 17:54:12;;;;;;;;;;;;;;;;;;6273590;28;19913;-79
2023/10/28 17:57:13;;;;;;;;;;;;;;;;;;6288305;28;19912;-79
2023/10/28 18:00:16;;;;;;;;;;;;;;;;;;6272290;28;19913;-80
2023/10/28 18:03:18;;;;;;;;;;;;;;;;;;6276893;28;19968;-80
2023/10/28 18:06:19;;;;;;;;;;;;;;;;;;6271376;28;19928;-81
2023/10/28 18:09:20;;;;;;;;;;;;;;;;;;6269830;28;19912;-80
2023/10/28 18:12:21;;;;;;;;;;;;;;;;;;6272055;28;20007;-79
2023/10/28 18:15:21;;;;;;;;;;;;;;;;;;6271715;28;19912;-80
2023/10/28 18:18:21;;;;;;;;;;;;;;;;;;6278411;28;20303;-85
2023/10/28 18:21:21;;;;;;;;;;;;;;;;;;6282515;28;20120;-80
2023/10/28 18:24:21;;;;;;;;;;;;;;;;;;6294392;28;19973;-80
2023/10/28 18:27:21;;;;;;;;;;;;;;;;;;6297700;28;19909;-80
2023/10/28 18:30:21;;;;;;;;;;;;;;;;;;6297609;28;19908;-80
2023/10/28 18:33:22;;;;;;;;;;;;;;;;;;6280722;28;20297;-83
2023/10/28 18:36:22;;;;;;;;;;;;;;;;;;6290556;28;20370;-80
2023/10/28 18:39:22;;;;;;;;;;;;;;;;;;6272521;28;20007;-80
2023/10/28 18:42:22;;;;;;;;;;;;;;;;;;6271426;28;19920;-79
2023/10/28 18:45:22;;;;;;;;;;;;;;;;;;6276313;28;19916;-83
2023/10/28 18:48:23;;;;;;;;;;;;;;;;;;6273428;28;20305;-82
2023/10/28 18:51:24;;;;;;;;;;;;;;;;;;6288652;28;19923;-81
2023/10/28 18:54:24;;;;;;;;;;;;;;;;;;6273175;28;19920;-80
2023/10/28 18:57:24;;;;;;;;;;;;;;;;;;6273676;28;20015;-78
2023/10/28 19:00:24;;;;;;;;;;;;;;;;;;6275740;28;19912;-77
2023/10/28 19:03:24;;;;;;;;;;;;;;;;;;6274329;28;19974;-84
2023/10/28 19:06:25;;;;;;;;;;;;;;;;;;6274230;28;19959;-78
2023/10/28 19:09:25;;;;;;;;;;;;;;;;;;6271434;28;19921;-78
2023/10/28 19:12:25;;;;;;;;;;;;;;;;;;6278617;28;20334;-77
2023/10/28 19:15:25;;;;;;;;;;;;;;;;;;6283579;28;20369;-77
2023/10/28 19:18:25;;;;;;;;;;;;;;;;;;6289480;28;20289;-79
2023/10/28 19:21:25;;;;;;;;;;;;;;;;;;6297534;28;19927;-78
2023/10/28 19:24:26;;;;;;;;;;;;;;;;;;6316486;28;19923;-77
2023/10/28 19:27:26;;;;;;;;;;;;;;;;;;6300840;28;20358;-77
2023/10/28 19:30:27;;;;;;;;;;;;;;;;;;6280170;28;19913;-77
2023/10/28 19:33:28;;;;;;;;;;;;;;;;;;6284153;28;19913;-80
2023/10/28 19:36:28;;;;;;;;;;;;;;;;;;6297342;28;19993;-79
2023/10/28 19:39:30;;;;;;;;;;;;;;;;;;6293564;28;19925;-78
2023/10/28 19:42:31;;;;;;;;;;;;;;;;;;6286889;28;19921;-77
2023/10/28 19:45:31;;;;;;;;;;;;;;;;;;6287246;28;19921;-77
2023/10/28 19:48:31;;;;;;;;;;;;;;;;;;6293620;28;19912;-79
2023/10/28 19:51:31;;;;;;;;;;;;;;;;;;5942735;28;9999631;-78
2023/10/28 19:54:31;;;;;;;;;;;;;;;;;;6293602;28;19927;-78
2023/10/28 19:57:33;;;;;;;;;;;;;;;;;;6281373;28;19916;-77
2023/10/28 20:00:36;;;;;;;;;;;;;;;;;;6281021;28;19917;-78
2023/10/28 20:03:36;;;;;;;;;;;;;;;;;;6279714;28;19921;-78
2023/10/28 20:06:36;;;;;;;;;;;;;;;;;;6308533;28;19996;-80
2023/10/28 20:09:37;;;;;;;;;;;;;;;;;;6277260;28;19923;-81
2023/10/28 20:12:37;;;;;;;;;;;;;;;;;;6278849;28;20015;-82
2023/10/28 20:15:37;;;;;;;;;;;;;;;;;;6279436;28;20257;-81
2023/10/28 20:18:37;;;;;;;;;;;;;;;;;;6272068;28;19960;-82
2023/10/28 20:21:37;;;;;;;;;;;;;;;;;;6278158;28;20320;-82
2023/10/28 20:24:39;;;;;;;;;;;;;;;;;;6275310;28;22594;-81
2023/10/28 20:27:39;;;;;;;;;;;;;;;;;;6277227;28;20511;-80